Time;durP1;ratioP1;P1;durP2;ratioP2;P2;SDS_P1;SDS_P2;PMS_P1;PMS_P2;Temp;Humidity;BMP_temperature;BMP_pressure;BME280_temperature;BME280_humidity;BME280_pressure;Samples;Min_cycle;Max_cycle;Signal;HPM_P1;HPM_P2
2024/01/26 00:02:21;;;;;;;41.03;26.17;;;;;;;8.97;100.00;102264.03;5085038;28;20402;-80
2024/01/26 00:04:46;;;;;;;38.88;25.55;;;;;;;8.99;100.00;102249.13;5085321;28;20024;-81
2024/01/26 00:07:12;;;;;;;38.28;24.48;;;;;;;9.00;100.00;102252.66;5069636;28;20031;-80
2024/01/26 00:09:37;;;;;;;37.70;24.90;;;;;;;8.99;100.00;102243.84;5083193;28;20016;-80
2024/01/26 00:12:02;;;;;;;38.20;26.10;;;;;;;8.98;100.00;102238.53;5085194;28;20398;-82
2024/01/26 00:14:28;;;;;;;39.72;24.88;;;;;;;8.98;100.00;102247.31;5081760;28;20053;-80
2024/01/26 00:16:53;;;;;;;40.00;24.58;;;;;;;8.99;100.00;102246.50;5066855;28;20032;-81
2024/01/26 00:19:18;;;;;;;36.08;23.42;;;;;;;9.02;100.00;102243.94;5084863;28;20032;-73
2024/01/26 00:21:44;;;;;;;36.80;23.50;;;;;;;9.00;100.00;102245.66;5083314;28;20021;-76
2024/01/26 00:24:10;;;;;;;35.67;23.27;;;;;;;8.98;100.00;102236.78;5085627;28;20116;-74
2024/01/26 00:26:36;;;;;;;34.60;22.40;;;;;;;8.96;100.00;102241.13;5082625;28;20064;-77
2024/01/26 00:29:01;;;;;;;33.90;22.70;;;;;;;8.98;100.00;102239.41;5085767;28;20076;-79
2024/01/26 00:31:26;;;;;;;33.83;22.05;;;;;;;8.98;100.00;102239.41;5082887;28;20042;-80
2024/01/26 00:33:52;;;;;;;32.95;21.70;;;;;;;8.98;100.00;102244.69;5084346;28;20116;-76
2024/01/26 00:36:17;;;;;;;33.65;21.70;;;;;;;9.00;100.00;102236.81;5084213;28;20055;-78
2024/01/26 00:38:43;;;;;;;32.97;21.27;;;;;;;9.01;100.00;102242.19;5081531;28;20029;-76
2024/01/26 00:41:10;;;;;;;32.47;21.40;;;;;;;8.99;100.00;102241.22;5085630;28;20036;-73
2024/01/26 00:43:35;;;;;;;33.67;20.95;;;;;;;8.97;100.00;102237.66;5081169;28;20028;-80
2024/01/26 00:46:01;;;;;;;34.10;21.35;;;;;;;8.99;100.00;102235.94;5085516;28;20360;-79
2024/01/26 00:48:26;;;;;;;32.88;20.52;;;;;;;9.00;100.00;102236.81;5081889;28;20145;-79
2024/01/26 00:50:54;;;;;;;32.85;22.00;;;;;;;9.00;100.00;102232.47;5082664;28;20395;-81
2024/01/26 00:53:20;;;;;;;33.17;21.13;;;;;;;8.99;100.00;102235.06;5084248;28;20423;-79
2024/01/26 00:55:45;;;;;;;30.85;19.73;;;;;;;9.03;100.00;102227.28;5083244;28;20063;-77
2024/01/26 00:58:11;;;;;;;30.70;19.75;;;;;;;9.03;100.00;102224.66;5084806;28;20061;-74
2024/01/26 01:00:37;;;;;;;30.17;18.98;;;;;;;9.01;100.00;102234.25;5081906;28;20033;-72
2024/01/26 01:03:04;;;;;;;30.17;17.60;;;;;;;9.01;100.00;102229.00;5085143;28;20026;-72
2024/01/26 01:05:29;;;;;;;29.85;17.83;;;;;;;9.00;100.00;102221.91;5082077;28;20392;-71
2024/01/26 01:07:55;;;;;;;28.98;15.90;;;;;;;9.06;100.00;102214.19;5086043;28;20028;-72
2024/01/26 01:10:21;;;;;;;27.05;16.23;;;;;;;9.06;100.00;102215.94;5083202;28;20036;-72
2024/01/26 01:12:47;;;;;;;27.15;15.45;;;;;;;9.09;100.00;102221.31;5082657;28;20535;-77
2024/01/26 01:15:13;;;;;;;27.58;15.57;;;;;;;9.05;100.00;102224.69;5082382;28;20531;-75
2024/01/26 01:17:39;;;;;;;27.05;15.50;;;;;;;9.03;100.00;102223.75;5085556;28;20103;-79
2024/01/26 01:20:08;;;;;;;25.63;14.80;;;;;;;9.04;100.00;102221.19;5081485;28;20082;-74
2024/01/26 01:22:34;;;;;;;26.20;15.68;;;;;;;9.04;100.00;102205.34;5077934;28;20410;-78
2024/01/26 01:24:59;;;;;;;25.65;15.43;;;;;;;9.00;100.00;102200.81;5084271;28;20028;-77
2024/01/26 01:27:25;;;;;;;25.63;14.68;;;;;;;9.02;100.00;102191.19;5082373;28;20115;-80
2024/01/26 01:29:50;;;;;;;25.98;15.35;;;;;;;9.00;100.00;102190.25;5083050;28;20498;-79
2024/01/26 01:32:15;;;;;;;25.30;14.32;;;;;;;9.00;100.00;102184.06;5083391;28;20024;-78
2024/01/26 01:34:43;;;;;;;24.55;13.77;;;;;;;9.00;100.00;102187.63;5080046;28;20107;-83
2024/01/26 01:37:08;;;;;;;24.83;13.50;;;;;;;9.02;100.00;102183.28;5084850;28;20028;-80
2024/01/26 01:39:33;;;;;;;24.42;12.77;;;;;;;9.02;100.00;102188.56;5079994;28;20047;-83
2024/01/26 01:41:59;;;;;;;23.73;13.02;;;;;;;9.01;100.00;102188.50;5083883;28;20028;-82
2024/01/26 01:44:24;;;;;;;22.63;12.02;;;;;;;9.00;100.00;102178.78;5082526;28;20043;-81
2024/01/26 01:46:50;;;;;;;22.65;11.75;;;;;;;9.03;100.00;102178.91;5082587;28;20384;-77
2024/01/26 01:49:15;;;;;;;22.75;11.77;;;;;;;9.00;100.00;102170.88;5083344;28;20481;-72
2024/01/26 01:51:46;;;;;;;22.85;11.30;;;;;;;9.02;100.00;102172.72;5081429;28;20033;-81
2024/01/26 01:54:12;;;;;;;22.00;11.13;;;;;;;9.00;100.00;102166.53;5083908;28;20028;-83
2024/01/26 01:56:41;;;;;;;21.52;10.90;;;;;;;9.02;100.00;102172.72;5081065;28;20040;-80
2024/01/26 01:59:08;;;;;;;21.95;11.25;;;;;;;8.98;100.00;102165.56;5076026;28;20561;-83
2024/01/26 02:01:33;;;;;;;22.70;10.93;;;;;;;8.98;100.00;102160.28;5076783;28;20067;-72
2024/01/26 02:04:02;;;;;;;22.75;10.93;;;;;;;8.99;100.00;102167.34;5083593;28;20107;-72
2024/01/26 02:06:27;;;;;;;22.17;11.20;;;;;;;9.01;100.00;102149.84;5081709;28;20024;-72
2024/01/26 02:08:53;;;;;;;22.27;10.40;;;;;;;9.01;100.00;102152.50;5082740;28;20028;-76
2024/01/26 02:11:18;;;;;;;22.00;10.75;;;;;;;9.02;100.00;102149.00;5082626;28;20036;-72
2024/01/26 02:13:44;;;;;;;22.02;10.60;;;;;;;8.99;100.00;102140.97;5081507;28;20057;-72
2024/01/26 02:16:09;;;;;;;22.15;10.32;;;;;;;9.02;100.00;102141.06;5083993;28;20105;-72
2024/01/26 02:18:35;;;;;;;21.55;9.98;;;;;;;8.99;100.00;102135.72;5080855;28;20052;-71
2024/01/26 02:21:01;;;;;;;20.27;9.48;;;;;;;9.00;100.00;102140.16;5083954;28;20063;-72
2024/01/26 02:23:26;;;;;;;20.48;9.60;;;;;;;9.01;100.00;102128.75;5080366;28;20056;-74
2024/01/26 02:25:52;;;;;;;20.52;8.98;;;;;;;9.02;100.00;102130.53;5080654;28;20204;-72
2024/01/26 02:28:17;;;;;;;20.83;9.00;;;;;;;9.04;100.00;102128.84;5063643;28;20036;-73
2024/01/26 02:30:42;;;;;;;20.13;8.52;;;;;;;9.05;100.00;102114.78;5083248;28;20059;-71
2024/01/26 02:33:08;;;;;;;19.52;8.32;;;;;;;9.07;100.00;102118.38;5080629;28;20047;-72
2024/01/26 02:35:33;;;;;;;19.42;8.00;;;;;;;9.06;100.00;102116.59;5083881;28;20044;-71
2024/01/26 02:37:58;;;;;;;20.10;8.10;;;;;;;9.13;100.00;102112.41;5081118;28;20132;-71
2024/01/26 02:40:24;;;;;;;19.35;7.70;;;;;;;9.11;100.00;102103.53;5081801;28;20090;-76
2024/01/26 02:42:49;;;;;;;19.25;7.10;;;;;;;9.08;100.00;102093.78;5082416;28;20433;-73
2024/01/26 02:45:14;;;;;;;20.02;7.80;;;;;;;9.06;100.00;102106.03;5082485;28;20064;-81
2024/01/26 02:47:40;;;;;;;19.10;7.28;;;;;;;9.10;100.00;102100.84;5086539;28;20528;-82
2024/01/26 02:50:06;;;;;;;18.98;7.45;;;;;;;9.09;100.00;102097.34;5084302;28;20433;-82
2024/01/26 02:52:32;;;;;;;18.92;7.60;;;;;;;9.11;100.00;102090.34;5087789;28;20028;-76
2024/01/26 02:54:57;;;;;;;18.92;7.40;;;;;;;9.12;100.00;102083.34;5084598;28;20027;-78
2024/01/26 02:57:23;;;;;;;19.65;7.38;;;;;;;9.14;100.00;102081.63;5086342;28;20078;-83
2024/01/26 02:59:48;;;;;;;19.73;7.72;;;;;;;9.16;100.00;102088.75;5086502;28;20488;-82
2024/01/26 03:02:13;;;;;;;19.50;7.38;;;;;;;9.16;100.00;102077.28;5084661;28;20541;-71
2024/01/26 03:04:39;;;;;;;19.25;7.47;;;;;;;9.17;100.00;102071.16;5087634;28;20035;-73
2024/01/26 03:07:04;;;;;;;19.50;7.32;;;;;;;9.20;100.00;102071.25;5080027;28;20540;-73
2024/01/26 03:09:29;;;;;;;18.63;7.43;;;;;;;9.20;100.00;102055.44;5086604;28;20540;-72
2024/01/26 03:11:55;;;;;;;19.15;7.70;;;;;;;9.19;100.00;102064.22;5085216;28;20040;-71
2024/01/26 03:14:20;;;;;;;19.77;7.40;;;;;;;9.23;100.00;102076.63;5085436;28;20021;-79
2024/01/26 03:16:45;;;;;;;19.30;7.72;;;;;;;9.21;100.00;102057.22;5086306;28;20051;-78
2024/01/26 03:19:11;;;;;;;20.02;7.72;;;;;;;9.23;100.00;102050.22;5083873;28;20036;-77
2024/01/26 03:21:45;;;;;;;18.73;7.28;;;;;;;9.22;100.00;102044.06;5087226;28;20107;-75
2024/01/26 03:24:12;;;;;;;18.60;7.57;;;;;;;9.23;100.00;102035.31;5080609;28;20024;-72
2024/01/26 03:26:38;;;;;;;18.92;7.72;;;;;;;9.24;100.00;102030.94;5087122;28;20024;-73
2024/01/26 03:29:05;;;;;;;19.33;7.97;;;;;;;9.26;100.00;102034.47;5083998;28;20498;-72
2024/01/26 03:31:30;;;;;;;18.83;7.28;;;;;;;9.26;100.00;102029.22;5086610;28;20032;-74
2024/01/26 03:33:56;;;;;;;19.27;7.60;;;;;;;9.29;100.00;102025.78;5083240;28;20521;-73
2024/01/26 03:36:21;;;;;;;19.50;7.90;;;;;;;9.32;100.00;102024.13;5083814;28;20074;-72
2024/01/26 03:38:47;;;;;;;18.98;7.50;;;;;;;9.31;100.00;102027.63;5084484;28;20027;-73
2024/01/26 03:41:13;;;;;;;19.48;7.90;;;;;;;9.34;100.00;102027.69;5082391;28;20024;-78
2024/01/26 03:43:38;;;;;;;19.00;7.60;;;;;;;9.40;100.00;102024.34;5086930;28;20032;-73
2024/01/26 03:46:05;;;;;;;19.20;8.05;;;;;;;9.40;100.00;102032.25;5083433;28;20098;-73
2024/01/26 03:48:31;;;;;;;19.95;7.90;;;;;;;9.38;100.00;102032.22;5086037;28;20081;-72
2024/01/26 03:50:57;;;;;;;19.35;7.60;;;;;;;9.39;100.00;102018.19;5084194;28;20040;-73
2024/01/26 03:53:23;;;;;;;20.05;7.72;;;;;;;9.46;100.00;102010.41;5084781;28;20021;-73
2024/01/26 03:55:48;;;;;;;19.33;7.78;;;;;;;9.46;100.00;102003.38;5084978;28;20039;-72
2024/01/26 03:58:14;;;;;;;20.88;8.05;;;;;;;9.45;100.00;102004.25;5065463;28;20047;-73
2024/01/26 04:00:39;;;;;;;19.88;7.88;;;;;;;9.45;100.00;102008.63;5086664;28;20067;-73
2024/01/26 04:03:04;;;;;;;20.13;8.10;;;;;;;9.47;100.00;101993.75;5079053;28;20419;-73
2024/01/26 04:05:30;;;;;;;19.67;8.13;;;;;;;9.42;100.00;101989.22;5085746;28;20035;-72
2024/01/26 04:07:55;;;;;;;20.00;8.43;;;;;;;9.43;100.00;101996.28;5084065;28;20069;-75
2024/01/26 04:10:21;;;;;;;20.15;8.20;;;;;;;9.51;100.00;102004.41;5084613;28;20542;-72
2024/01/26 04:12:46;;;;;;;20.10;8.70;;;;;;;9.47;100.00;101994.63;5085317;28;20020;-74
2024/01/26 04:15:11;;;;;;;20.52;8.63;;;;;;;9.52;100.00;101984.19;5082677;28;20457;-72
2024/01/26 04:17:37;;;;;;;20.75;8.73;;;;;;;9.55;100.00;101958.78;5086379;28;20108;-73
2024/01/26 04:20:03;;;;;;;20.98;8.98;;;;;;;9.54;100.00;101972.81;5083083;28;20418;-72
2024/01/26 04:22:28;;;;;;;21.42;9.27;;;;;;;9.52;100.00;101977.19;5085289;28;20033;-73
2024/01/26 04:24:54;;;;;;;21.13;9.50;;;;;;;9.55;100.00;101947.31;5084125;28;20027;-72
2024/01/26 04:27:19;;;;;;;21.52;9.77;;;;;;;9.54;100.00;101945.53;5082450;28;20108;-72
2024/01/26 04:29:44;;;;;;;21.33;9.60;;;;;;;9.58;100.00;101935.09;5085093;28;20028;-72
2024/01/26 04:32:10;;;;;;;20.95;9.70;;;;;;;9.57;100.00;101924.50;5081141;28;20044;-74
2024/01/26 04:34:37;;;;;;;21.63;9.88;;;;;;;9.56;100.00;101951.75;5085804;28;20031;-72
2024/01/26 04:37:03;;;;;;;21.20;10.10;;;;;;;9.56;100.00;101930.63;5082766;28;20028;-73
2024/01/26 04:39:29;;;;;;;22.00;10.30;;;;;;;9.53;100.00;101918.22;5085310;28;20123;-73
2024/01/26 04:41:54;;;;;;;20.83;9.77;;;;;;;9.53;100.00;101936.72;5083472;28;20077;-73
2024/01/26 04:44:20;;;;;;;21.70;9.93;;;;;;;9.56;100.00;101922.69;5064870;28;20127;-73
2024/01/26 04:46:45;;;;;;;21.08;10.35;;;;;;;9.53;100.00;101920.00;5084981;28;20092;-73
2024/01/26 04:49:11;;;;;;;21.70;10.48;;;;;;;9.53;100.00;101918.22;5082445;28;20112;-81
2024/01/26 04:51:40;;;;;;;21.95;10.40;;;;;;;9.56;100.00;101928.88;5086528;28;20035;-82
2024/01/26 04:54:06;;;;;;;22.08;10.93;;;;;;;9.56;100.00;101925.34;5078531;28;20032;-80
2024/01/26 04:56:31;;;;;;;21.77;10.25;;;;;;;9.53;100.00;101935.81;5084092;28;20020;-82
2024/01/26 04:58:57;;;;;;;20.92;10.30;;;;;;;9.49;100.00;101919.00;5083589;28;20067;-84
2024/01/26 05:01:22;;;;;;;21.35;10.05;;;;;;;9.47;100.00;101920.72;5066055;28;20033;-79
2024/01/26 05:03:47;;;;;;;22.17;10.25;;;;;;;9.45;100.00;101925.06;5084739;28;20047;-84
2024/01/26 05:06:13;;;;;;;21.80;10.75;;;;;;;9.46;100.00;101924.19;5081299;28;20037;-81
2024/01/26 05:08:40;;;;;;;22.27;10.73;;;;;;;9.49;100.00;101915.47;5085231;28;20024;-72
2024/01/26 05:11:05;;;;;;;21.17;10.50;;;;;;;9.52;100.00;101920.84;5082056;28;20060;-72
2024/01/26 05:13:31;;;;;;;21.33;10.10;;;;;;;9.53;100.00;101915.59;5085135;28;20061;-75
2024/01/26 05:15:56;;;;;;;21.75;10.30;;;;;;;9.57;100.00;101898.09;5081706;28;20071;-78
2024/01/26 05:18:21;;;;;;;21.42;10.18;;;;;;;9.57;100.00;101903.38;5083649;28;20092;-72
2024/01/26 05:20:47;;;;;;;21.77;10.18;;;;;;;9.57;100.00;101874.34;5084704;28;20114;-78
2024/01/26 05:23:12;;;;;;;20.35;9.77;;;;;;;9.55;100.00;101891.88;5082107;28;20029;-76
2024/01/26 05:25:37;;;;;;;21.38;10.40;;;;;;;9.46;100.00;101886.38;5085341;28;20467;-76
2024/01/26 05:28:03;;;;;;;22.77;10.60;;;;;;;9.34;100.00;101879.03;5082530;28;20540;-75
2024/01/26 05:30:28;;;;;;;21.88;11.40;;;;;;;9.21;100.00;101872.53;5084346;28;20464;-78
2024/01/26 05:32:54;;;;;;;22.95;11.05;;;;;;;9.17;100.00;101878.59;5081683;28;20395;-75
2024/01/26 05:35:21;;;;;;;22.30;11.20;;;;;;;9.12;100.00;101874.94;5082532;28;20086;-74
2024/01/26 05:37:46;;;;;;;22.42;10.93;;;;;;;9.10;100.00;101871.34;5083857;28;20501;-75
2024/01/26 05:40:12;;;;;;;23.42;11.93;;;;;;;9.03;100.00;101871.19;5081567;28;20029;-77
2024/01/26 05:42:37;;;;;;;25.98;12.73;;;;;;;8.97;100.00;101846.38;5084549;28;20039;-79
2024/01/26 05:45:04;;;;;;;26.35;13.27;;;;;;;8.94;100.00;101854.22;5081644;28;20029;-75
2024/01/26 05:47:29;;;;;;;26.02;13.80;;;;;;;8.91;100.00;101857.66;5083628;28;20037;-75
2024/01/26 05:49:54;;;;;;;24.65;13.35;;;;;;;8.91;100.00;101857.66;5082495;28;20027;-73
2024/01/26 05:52:20;;;;;;;25.55;12.65;;;;;;;8.93;100.00;101860.34;5082168;28;20068;-73
2024/01/26 05:54:45;;;;;;;25.70;13.52;;;;;;;8.93;100.00;101857.69;5083955;28;20032;-74
2024/01/26 05:57:11;;;;;;;25.85;13.65;;;;;;;8.90;100.00;101851.50;5079606;28;20078;-73
2024/01/26 05:59:37;;;;;;;26.45;13.40;;;;;;;8.91;100.00;101849.75;5076944;28;20039;-74
2024/01/26 06:02:04;;;;;;;25.65;13.98;;;;;;;8.88;100.00;101852.31;5084275;28;20028;-73
2024/01/26 06:04:31;;;;;;;28.08;14.73;;;;;;;8.80;100.00;101860.00;5081815;28;20043;-73
2024/01/26 06:06:56;;;;;;;26.67;15.43;;;;;;;8.80;100.00;101838.03;5081746;28;20024;-73
2024/01/26 06:09:22;;;;;;;28.48;15.00;;;;;;;8.84;100.00;101840.78;5082846;28;20115;-73
2024/01/26 06:11:47;;;;;;;28.73;15.52;;;;;;;8.83;100.00;101853.94;5080272;28;20060;-73
2024/01/26 06:14:12;;;;;;;28.65;15.80;;;;;;;8.89;100.00;101839.16;5084040;28;20028;-73
2024/01/26 06:16:38;;;;;;;27.90;16.10;;;;;;;8.92;100.00;101853.31;5080873;28;20411;-74
2024/01/26 06:19:03;;;;;;;28.45;15.73;;;;;;;8.89;100.00;101833.00;5085134;28;20384;-72
2024/01/26 06:21:29;;;;;;;28.92;15.77;;;;;;;8.93;100.00;101828.69;5086324;28;20540;-72
2024/01/26 06:23:54;;;;;;;27.98;15.80;;;;;;;8.96;100.00;101823.53;5085457;28;20029;-72
2024/01/26 06:26:20;;;;;;;28.50;16.15;;;;;;;8.95;100.00;101819.09;5085903;28;20391;-81
2024/01/26 06:28:45;;;;;;;28.25;15.73;;;;;;;8.99;100.00;101842.06;5085479;28;20029;-80
2024/01/26 06:31:11;;;;;;;29.67;16.83;;;;;;;8.95;100.00;101838.44;5086697;28;20477;-80
2024/01/26 06:33:36;;;;;;;29.05;16.08;;;;;;;9.00;100.00;101836.84;5084725;28;20126;-73
2024/01/26 06:36:02;;;;;;;28.98;15.98;;;;;;;8.99;100.00;101827.13;5087550;28;20115;-73
2024/01/26 06:38:27;;;;;;;27.98;15.13;;;;;;;9.01;100.00;101845.63;5085766;28;20027;-73
2024/01/26 06:40:52;;;;;;;27.42;14.55;;;;;;;9.05;100.00;101850.13;5086100;28;20120;-74
2024/01/26 06:43:19;;;;;;;26.90;15.30;;;;;;;9.07;100.00;101836.13;5087179;28;20368;-74
2024/01/26 06:45:45;;;;;;;26.67;15.73;;;;;;;9.06;100.00;101834.34;5084752;28;20041;-73
2024/01/26 06:48:10;;;;;;;27.67;15.15;;;;;;;9.10;100.00;101835.34;5087822;28;20390;-74
2024/01/26 06:50:35;;;;;;;28.08;14.88;;;;;;;9.06;100.00;101826.44;5084456;28;20032;-74
2024/01/26 06:53:01;;;;;;;26.98;14.70;;;;;;;9.09;100.00;101836.19;5086820;28;20031;-75
2024/01/26 06:55:26;;;;;;;26.85;14.80;;;;;;;9.13;100.00;101827.50;5085846;28;20035;-73
2024/01/26 06:57:51;;;;;;;26.67;14.10;;;;;;;9.18;100.00;101817.94;5085986;28;20054;-76
2024/01/26 07:00:17;;;;;;;28.42;15.00;;;;;;;9.15;100.00;101823.16;5086726;28;20406;-76
2024/01/26 07:02:43;;;;;;;28.80;15.30;;;;;;;9.18;100.00;101819.69;5084358;28;20388;-76
2024/01/26 07:05:08;;;;;;;26.55;14.90;;;;;;;9.22;100.00;101818.94;5087754;28;20031;-75
2024/01/26 07:07:34;;;;;;;27.13;15.05;;;;;;;9.23;100.00;101807.50;5082949;28;20451;-74
2024/01/26 07:09:59;;;;;;;26.63;14.50;;;;;;;9.24;100.00;101811.94;5086543;28;20033;-74
2024/01/26 07:12:24;;;;;;;27.77;14.68;;;;;;;9.24;100.00;101801.38;5085473;28;20036;-73
2024/01/26 07:14:50;;;;;;;26.92;15.93;;;;;;;9.26;100.00;101815.50;5066737;28;20036;-73
2024/01/26 07:17:15;;;;;;;28.50;15.52;;;;;;;9.29;100.00;101799.75;5087346;28;20032;-73
2024/01/26 07:19:41;;;;;;;28.02;15.93;;;;;;;9.27;100.00;101803.22;5083735;28;20430;-73
2024/01/26 07:22:06;;;;;;;28.05;15.70;;;;;;;9.29;100.00;101806.75;5087114;28;20028;-79
2024/01/26 07:24:31;;;;;;;30.40;16.85;;;;;;;9.29;100.00;101804.13;5083386;28;20029;-80
2024/01/26 07:26:57;;;;;;;27.23;16.13;;;;;;;9.33;100.00;101804.22;5085631;28;20037;-73
2024/01/26 07:29:22;;;;;;;26.90;14.77;;;;;;;9.38;100.00;101793.81;5085508;28;20028;-74
2024/01/26 07:31:48;;;;;;;26.77;15.48;;;;;;;9.38;100.00;101796.47;5082243;28;20033;-74
2024/01/26 07:34:13;;;;;;;27.05;15.55;;;;;;;9.47;100.00;101793.16;5086757;28;20474;-78
2024/01/26 07:36:39;;;;;;;26.83;15.90;;;;;;;9.45;100.00;101805.41;5083424;28;20031;-74
2024/01/26 07:39:05;;;;;;;27.08;15.10;;;;;;;9.50;100.00;101795.84;5085399;28;20035;-77
2024/01/26 07:41:31;;;;;;;27.98;15.48;;;;;;;9.48;100.00;101787.00;5084142;28;20028;-76
2024/01/26 07:43:56;;;;;;;26.90;16.05;;;;;;;9.51;100.00;101803.81;5085453;28;20038;-73
2024/01/26 07:46:21;;;;;;;26.45;15.30;;;;;;;9.58;100.00;101789.00;5085310;28;20032;-73
2024/01/26 07:48:47;;;;;;;27.02;16.08;;;;;;;9.59;100.00;101806.63;5083662;28;20060;-74
2024/01/26 07:51:12;;;;;;;26.02;14.85;;;;;;;9.63;100.00;101810.25;5086585;28;20032;-73
2024/01/26 07:53:38;;;;;;;27.35;15.70;;;;;;;9.62;100.00;101821.66;5083358;28;20036;-72
2024/01/26 07:56:03;;;;;;;27.00;15.70;;;;;;;9.64;100.00;101836.69;5084820;28;20033;-73
2024/01/26 07:58:28;;;;;;;27.08;15.27;;;;;;;9.69;100.00;101840.31;5084213;28;20477;-73
2024/01/26 08:00:54;;;;;;;26.45;14.98;;;;;;;9.75;100.00;101843.06;5084777;28;20079;-73
2024/01/26 08:03:19;;;;;;;27.13;15.95;;;;;;;9.74;100.00;101848.31;5085481;28;20032;-74
2024/01/26 08:05:44;;;;;;;25.92;14.95;;;;;;;9.77;100.00;101859.88;5083324;28;20109;-73
2024/01/26 08:08:10;;;;;;;26.67;15.38;;;;;;;9.77;100.00;101851.94;5085087;28;20060;-73
2024/01/26 08:10:35;;;;;;;24.67;13.88;;;;;;;9.77;100.00;101846.66;5082958;28;20037;-73
2024/01/26 08:13:01;;;;;;;25.92;15.25;;;;;;;9.80;100.00;101840.56;5085450;28;20383;-73
2024/01/26 08:15:26;;;;;;;24.92;13.40;;;;;;;9.83;100.00;101831.81;5084188;28;20048;-73
2024/01/26 08:17:51;;;;;;;24.92;13.70;;;;;;;9.86;100.00;101842.44;5084153;28;20391;-74
2024/01/26 08:20:17;;;;;;;25.02;14.75;;;;;;;9.85;100.00;101857.41;5085679;28;20421;-78
2024/01/26 08:22:43;;;;;;;24.63;13.23;;;;;;;9.84;100.00;101847.69;5082533;28;20031;-74
2024/01/26 08:25:08;;;;;;;24.83;13.85;;;;;;;9.91;100.00;101846.09;5078842;28;20112;-76
2024/01/26 08:27:33;;;;;;;23.35;12.88;;;;;;;9.92;100.00;101856.69;5085508;28;20118;-75
2024/01/26 08:29:59;;;;;;;24.50;13.35;;;;;;;9.94;100.00;101847.03;5083464;28;20477;-76
2024/01/26 08:32:24;;;;;;;23.63;12.32;;;;;;;9.95;100.00;101854.13;5084357;28;20036;-75
2024/01/26 08:34:49;;;;;;;23.73;12.65;;;;;;;9.99;100.00;101855.09;5084736;28;20028;-73
2024/01/26 08:37:15;;;;;;;24.10;12.30;;;;;;;10.02;100.00;101860.44;5082620;28;20052;-73
2024/01/26 08:39:44;;;;;;;23.60;12.40;;;;;;;10.02;100.00;101875.38;5084693;28;20479;-74
2024/01/26 08:42:10;;;;;;;23.77;12.95;;;;;;;10.01;100.00;101863.94;5077438;28;20078;-77
2024/01/26 08:44:35;;;;;;;23.15;12.80;;;;;;;10.04;100.00;101857.84;5083653;28;20028;-74
2024/01/26 08:47:00;;;;;;;23.55;12.10;;;;;;;10.03;100.00;101851.66;5083275;28;20063;-75
2024/01/26 08:49:26;;;;;;;23.05;12.60;;;;;;;10.05;100.00;101876.38;5063979;28;20031;-75
2024/01/26 08:51:51;;;;;;;23.58;13.05;;;;;;;10.06;100.00;101872.88;5083033;28;20477;-73
2024/01/26 08:54:17;;;;;;;25.15;13.73;;;;;;;10.08;100.00;101867.63;5085045;28;20427;-75
2024/01/26 08:56:43;;;;;;;24.08;14.35;;;;;;;10.07;100.00;101855.25;5081821;28;20040;-75
2024/01/26 08:59:09;;;;;;;24.95;14.75;;;;;;;10.06;100.00;101867.59;5077824;28;20418;-75
2024/01/26 09:01:35;;;;;;;25.00;15.05;;;;;;;10.04;100.00;101855.19;5084927;28;20039;-74
2024/01/26 09:04:03;;;;;;;25.35;14.80;;;;;;;10.06;100.00;101869.31;5082826;28;20020;-74
2024/01/26 09:06:28;;;;;;;27.48;16.05;;;;;;;10.02;100.00;101878.94;5083877;28;20040;-74
2024/01/26 09:08:53;;;;;;;26.00;15.30;;;;;;;10.05;100.00;101871.06;5082424;28;20110;-74
2024/01/26 09:11:19;;;;;;;26.95;16.30;;;;;;;10.04;100.00;101869.28;5082560;28;20108;-74
2024/01/26 09:13:44;;;;;;;26.25;15.43;;;;;;;10.04;100.00;101877.22;5082096;28;20557;-74
2024/01/26 09:16:11;;;;;;;25.92;15.35;;;;;;;10.06;100.00;101911.59;5084814;28;20062;-80
2024/01/26 09:18:37;;;;;;;23.45;14.30;;;;;;;10.06;100.00;101912.50;5081430;28;20021;-75
2024/01/26 09:21:02;;;;;;;23.25;10.73;;;;;;;9.97;100.00;101908.75;5084686;28;20032;-74
2024/01/26 09:23:28;;;;;;;21.45;9.27;;;;;;;9.86;100.00;101922.59;5082077;28;20045;-74
2024/01/26 09:25:53;;;;;;;20.17;7.30;;;;;;;9.83;100.00;101884.63;5082226;28;20032;-76
2024/01/26 09:28:18;;;;;;;20.23;7.10;;;;;;;9.75;100.00;101939.91;5082423;28;20028;-74
2024/01/26 09:30:44;;;;;;;20.63;6.00;;;;;;;9.73;100.00;101944.25;5080394;28;20037;-74
2024/01/26 09:33:09;;;;;;;19.77;6.28;;;;;;;9.63;100.00;101932.56;5083468;28;20498;-74
2024/01/26 09:35:34;;;;;;;18.48;4.93;;;;;;;9.70;100.00;101926.59;5081348;28;20032;-74
2024/01/26 09:38:00;;;;;;;18.58;4.70;;;;;;;9.59;100.00;101933.34;5083892;28;20068;-74
2024/01/26 09:40:25;;;;;;;17.10;4.18;;;;;;;9.66;100.00;101950.25;5081389;28;20044;-76
2024/01/26 09:42:51;;;;;;;20.63;4.55;;;;;;;9.54;100.00;101930.59;5081480;28;20387;-73
2024/01/26 09:45:17;;;;;;;17.05;4.18;;;;;;;9.52;100.00;101955.16;5083487;28;20111;-73
2024/01/26 09:47:48;;;;;;;17.77;4.13;;;;;;;9.46;100.00;101973.47;5081753;28;20158;-74
2024/01/26 09:50:15;;;;;;;19.55;4.18;;;;;;;9.46;100.00;102010.41;5084290;28;20157;-74
2024/01/26 09:52:42;;;;;;;17.10;3.88;;;;;;;9.41;100.00;102019.09;5081135;28;20033;-73
2024/01/26 09:55:09;;;;;;;14.20;2.92;;;;;;;9.29;100.00;102012.56;5084005;28;20031;-73
2024/01/26 09:57:34;;;;;;;14.40;2.83;;;;;;;9.02;100.00;102046.13;5077992;28;20032;-78
2024/01/26 10:00:00;;;;;;;16.77;3.15;;;;;;;8.87;100.00;102050.94;5078150;28;20029;-74
2024/01/26 10:02:25;;;;;;;14.48;2.80;;;;;;;8.88;100.00;102052.72;5072577;28;20070;-76
2024/01/26 10:04:51;;;;;;;17.13;2.85;;;;;;;8.90;100.00;102078.28;5063568;28;20040;-75
2024/01/26 10:07:16;;;;;;;18.27;2.90;;;;;;;8.76;100.00;102092.78;5084258;28;20032;-74
2024/01/26 10:09:42;;;;;;;17.63;3.08;;;;;;;8.69;100.00;102080.25;5080974;28;20036;-78
2024/01/26 10:12:08;;;;;;;16.65;2.90;;;;;;;8.48;100.00;102094.53;5084725;28;20036;-74
2024/01/26 10:14:34;;;;;;;17.92;3.53;;;;;;;8.42;100.00;102074.94;5081044;28;20119;-77
2024/01/26 10:17:00;;;;;;;17.85;3.13;;;;;;;8.42;100.00;102101.28;5084371;28;20072;-76
2024/01/26 10:19:26;;;;;;;16.63;2.92;;;;;;;8.42;100.00;102078.50;5081751;28;20082;-78
2024/01/26 10:21:53;;;;;;;18.70;3.00;;;;;;;8.28;100.00;102106.13;5082982;28;20035;-78
2024/01/26 10:24:23;;;;;;;21.27;3.13;;;;;;;8.40;100.00;102121.44;5083755;28;20487;-81
2024/01/26 10:26:49;;;;;;;21.25;3.40;;;;;;;8.42;100.00;102115.38;5081993;28;20024;-81
2024/01/26 10:29:14;;;;;;;20.63;3.50;;;;;;;8.45;100.00;102127.81;5083316;28;20028;-81
2024/01/26 10:31:41;;;;;;;22.15;3.88;;;;;;;8.50;100.00;102139.38;5082185;28;20360;-81
2024/01/26 10:34:12;;;;;;;18.73;3.20;;;;;;;8.57;100.00;102137.88;5081537;28;20425;-77
2024/01/26 10:36:43;;;;;;;21.33;3.63;;;;;;;8.69;100.00;102136.53;5082055;28;20020;-78
2024/01/26 10:39:22;;;;;;;21.27;3.60;;;;;;;8.66;100.00;102149.59;5081708;28;20036;-74
2024/01/26 10:41:49;;;;;;;18.90;3.55;;;;;;;8.79;100.00;102153.53;5081610;28;20032;-78
2024/01/26 10:44:18;;;;;;;19.50;3.17;;;;;;;9.22;100.00;102111.78;5081187;28;20020;-80
2024/01/26 10:46:45;;;;;;;19.63;3.33;;;;;;;9.42;100.00;102142.31;5082443;28;20047;-80
2024/01/26 10:49:12;;;;;;;19.92;3.30;;;;;;;9.62;100.00;102144.63;5063224;28;20460;-78
2024/01/26 10:51:38;;;;;;;20.13;3.30;;;;;;;9.87;100.00;102164.72;5082985;28;20089;-77
2024/01/26 10:54:10;;;;;;;20.90;3.63;;;;;;;9.73;100.00;102177.53;5081989;28;20075;-74
2024/01/26 10:56:37;;;;;;;18.20;3.00;;;;;;;9.58;100.00;102164.78;5080842;28;20024;-73
2024/01/26 10:59:03;;;;;;;18.50;3.10;;;;;;;9.29;100.00;102184.09;5081950;28;20033;-75
2024/01/26 11:01:30;;;;;;;16.80;3.13;;;;;;;9.00;100.00;102186.72;5082939;28;20024;-73
2024/01/26 11:03:58;;;;;;;16.70;2.85;;;;;;;8.88;100.00;102171.38;5081071;28;20025;-74
2024/01/26 11:06:26;;;;;;;18.73;3.10;;;;;;;8.73;100.00;102212.22;5085168;28;20580;-75